Time;durP1;ratioP1;P1;durP2;ratioP2;P2;SDS_P1;SDS_P2;PMS_P1;PMS_P2;Temp;Humidity;BMP_temperature;BMP_pressure;BME280_temperature;BME280_humidity;BME280_pressure;Samples;Min_cycle;Max_cycle;Signal;HPM_P1;HPM_P2
2021/09/21 00:00:54;;;;;;;1999.90;999.90;;;;;;;10.39;48.04;102078.69;4984797;28;100904;-75
2021/09/21 00:03:22;;;;;;;1999.90;999.90;;;;;;;10.37;48.02;102077.72;4979706;28;99549;-75
2021/09/21 00:05:50;;;;;;;1999.90;999.90;;;;;;;10.37;47.97;102082.13;4969157;28;98037;-77
2021/09/21 00:08:18;;;;;;;1999.90;999.90;;;;;;;10.46;47.75;102082.53;4968823;28;96913;-76
2021/09/21 00:10:46;;;;;;;1999.90;999.90;;;;;;;10.48;47.60;102083.53;4968816;28;101164;-77
2021/09/21 00:13:15;;;;;;;1999.90;999.90;;;;;;;10.50;47.52;102089.81;4967297;28;99176;-74
2021/09/21 00:15:43;;;;;;;1999.90;999.90;;;;;;;10.50;47.60;102081.84;4985787;28;97772;-77
2021/09/21 00:18:11;;;;;;;1999.90;999.90;;;;;;;10.51;47.46;102088.97;4972303;28;96899;-77
2021/09/21 00:20:39;;;;;;;1999.90;999.90;;;;;;;10.50;47.64;102092.47;4973239;28;100460;-77
2021/09/21 00:23:07;;;;;;;1999.90;999.90;;;;;;;10.48;47.44;102086.19;4965861;28;100366;-77
2021/09/21 00:25:35;;;;;;;1999.90;999.90;;;;;;;10.46;47.44;102087.88;4958012;28;97035;-77
2021/09/21 00:28:03;;;;;;;1999.90;999.90;;;;;;;10.43;47.48;102085.97;4981171;28;97166;-77
2021/09/21 00:30:34;;;;;;;1999.90;999.90;;;;;;;10.44;47.83;102092.22;4979023;28;102007;-76
2021/09/21 00:33:03;;;;;;;1999.90;999.90;;;;;;;10.38;47.88;102087.50;4999456;28;99204;-77
2021/09/21 00:35:35;;;;;;;1999.90;999.90;;;;;;;10.36;47.78;102094.50;5002084;28;97743;-76
2021/09/21 00:38:04;;;;;;;1999.90;999.90;;;;;;;10.35;47.91;102091.78;4977951;28;96924;-77
2021/09/21 00:40:32;;;;;;;1999.90;999.90;;;;;;;10.36;48.16;102094.50;4978112;28;98635;-76
2021/09/21 00:43:02;;;;;;;1999.90;999.90;;;;;;;10.36;47.99;102104.22;4969370;28;99155;-74
2021/09/21 00:45:30;;;;;;;1999.90;999.90;;;;;;;10.36;47.82;102098.91;4983875;28;98160;-76
2021/09/21 00:48:00;;;;;;;1999.90;999.90;;;;;;;10.32;47.98;102099.66;4985227;28;96901;-76
2021/09/21 00:50:29;;;;;;;1999.90;999.90;;;;;;;10.30;47.97;102101.34;4984915;28;97783;-77
2021/09/21 00:53:00;;;;;;;1999.90;999.90;;;;;;;10.30;47.90;102098.66;5001039;28;98796;-75
2021/09/21 00:55:28;;;;;;;1999.90;999.90;;;;;;;10.29;47.90;102086.19;4968016;28;97104;-76
2021/09/21 00:57:56;;;;;;;1999.90;999.90;;;;;;;10.26;48.21;102094.06;4966674;28;96843;-76
2021/09/21 01:00:24;;;;;;;1999.90;999.90;;;;;;;10.25;48.11;102086.94;4984611;28;97927;-77
2021/09/21 01:02:52;;;;;;;1999.90;999.90;;;;;;;10.23;48.23;102088.63;4984243;28;97871;-75
2021/09/21 01:05:22;;;;;;;1999.90;999.90;;;;;;;10.19;48.17;102091.13;4984222;28;96810;-75
2021/09/21 01:07:50;;;;;;;1999.90;999.90;;;;;;;10.18;48.08;102091.97;4983164;28;96935;-76
2021/09/21 01:10:20;;;;;;;1999.90;999.90;;;;;;;10.16;48.21;102091.00;4983941;28;97689;-75
2021/09/21 01:12:48;;;;;;;1999.90;999.90;;;;;;;10.17;48.07;102092.78;4967105;28;100280;-76
2021/09/21 01:15:16;;;;;;;1999.90;999.90;;;;;;;10.18;48.19;102101.69;4985368;28;96831;-76
2021/09/21 01:17:45;;;;;;;1999.90;999.90;;;;;;;10.15;48.22;102104.22;4982506;28;96804;-76
2021/09/21 01:20:14;;;;;;;1999.90;999.90;;;;;;;10.12;48.26;102102.34;4981325;28;99207;-75
2021/09/21 01:22:44;;;;;;;1999.90;999.90;;;;;;;10.13;48.36;102108.56;4984555;28;100290;-76
2021/09/21 01:25:12;;;;;;;1999.90;999.90;;;;;;;10.12;48.30;102105.00;4968086;28;96913;-75
2021/09/21 01:27:40;;;;;;;1999.90;999.90;;;;;;;10.10;48.34;102109.34;4982776;28;96933;-75
2021/09/21 01:30:11;;;;;;;1999.90;999.90;;;;;;;10.11;48.40;102111.19;4962079;28;100504;-76
2021/09/21 01:32:39;;;;;;;1999.90;999.90;;;;;;;10.09;48.32;102118.19;4966349;28;100057;-76
2021/09/21 01:35:08;;;;;;;1999.90;999.90;;;;;;;10.09;48.27;102110.19;4982734;28;96819;-76
2021/09/21 01:37:39;;;;;;;1999.90;999.90;;;;;;;10.06;48.31;102115.34;4983282;28;97256;-76
2021/09/21 01:40:10;;;;;;;1999.90;999.90;;;;;;;10.06;48.34;102117.13;4954275;28;100546;-74
2021/09/21 01:42:45;;;;;;;1999.90;999.90;;;;;;;10.05;48.35;102115.28;4981732;28;101897;-75
2021/09/21 01:45:14;;;;;;;1999.90;999.90;;;;;;;10.04;48.39;102116.16;4964542;28;97357;-75
2021/09/21 01:47:44;;;;;;;1999.90;999.90;;;;;;;10.03;48.43;102114.31;4983554;28;97183;-76
2021/09/21 01:50:21;;;;;;;1999.90;999.90;;;;;;;10.01;48.45;102106.28;4993288;28;98905;-76
2021/09/21 01:52:56;;;;;;;1999.90;999.90;;;;;;;9.99;48.54;102105.28;4982297;28;99380;-76
2021/09/21 01:58:29;;;;;;;1999.90;999.90;;;;;;;9.96;48.53;102099.84;4982672;28;97013;-76
2021/09/21 02:00:57;;;;;;;1999.90;999.90;;;;;;;9.96;48.52;102101.59;4981231;28;97576;-75
2021/09/21 02:03:26;;;;;;;1999.90;999.90;;;;;;;9.96;48.63;102096.28;4982321;28;99270;-75
2021/09/21 02:05:54;;;;;;;1999.90;999.90;;;;;;;9.94;48.47;102088.22;4964419;28;96958;-76
2021/09/21 02:08:21;;;;;;;1999.90;999.90;;;;;;;9.94;48.60;102097.94;4978867;28;97375;-76
2021/09/21 02:10:51;;;;;;;1999.90;999.90;;;;;;;9.93;48.59;102089.09;4974531;28;99252;-76
2021/09/21 02:13:19;;;;;;;1999.90;999.90;;;;;;;9.94;48.68;102093.56;4983914;28;98812;-76
2021/09/21 02:15:46;;;;;;;1999.90;999.90;;;;;;;9.93;48.67;102093.50;4984142;28;97135;-75
2021/09/21 02:18:14;;;;;;;1999.90;999.90;;;;;;;9.92;48.54;102100.53;4973677;28;96824;-75
2021/09/21 02:20:42;;;;;;;1999.90;999.90;;;;;;;9.92;48.79;102097.88;4966921;28;99170;-75
2021/09/21 02:23:10;;;;;;;1999.90;999.90;;;;;;;9.89;48.62;102100.41;4984667;28;99278;-76
2021/09/21 02:25:38;;;;;;;1999.90;999.90;;;;;;;9.90;48.51;102104.00;4983810;28;97247;-75
2021/09/21 02:28:07;;;;;;;1999.90;999.90;;;;;;;9.89;48.76;102102.16;4977229;28;96899;-75
2021/09/21 02:30:36;;;;;;;1999.90;999.90;;;;;;;9.88;48.74;102109.22;4984415;28;99140;-75
2021/09/21 02:33:04;;;;;;;1999.90;999.90;;;;;;;9.86;49.01;102099.38;4995341;28;100753;-75
2021/09/21 02:35:32;;;;;;;1999.90;999.90;;;;;;;9.86;48.89;102092.28;4983393;28;96796;-76
2021/09/21 02:38:00;;;;;;;1999.90;999.90;;;;;;;9.84;48.90;102096.66;4973683;28;97011;-75
2021/09/21 02:40:29;;;;;;;1999.90;999.90;;;;;;;9.81;49.04;102096.50;4958005;28;100568;-75
2021/09/21 02:42:57;;;;;;;1999.90;999.90;;;;;;;9.75;49.00;102096.25;4981874;28;99655;-76
2021/09/21 02:45:27;;;;;;;1999.90;999.90;;;;;;;9.74;49.23;102093.50;4981206;28;97350;-76
2021/09/21 02:47:55;;;;;;;1999.90;999.90;;;;;;;9.73;49.22;102097.91;4983335;28;96808;-75
2021/09/21 02:50:22;;;;;;;1999.90;999.90;;;;;;;9.74;49.27;102097.06;4965411;28;99445;-76
2021/09/21 02:52:50;;;;;;;1999.90;999.90;;;;;;;9.73;49.15;102103.25;4994878;28;99303;-75
2021/09/21 02:55:18;;;;;;;1999.90;999.90;;;;;;;9.64;49.34;102107.22;4981546;28;96766;-75
2021/09/21 02:57:46;;;;;;;1999.90;999.90;;;;;;;9.57;49.46;102111.31;4981589;28;96848;-76
2021/09/21 03:00:19;;;;;;;1999.90;999.90;;;;;;;9.55;49.55;102122.75;4964125;28;100365;-75
2021/09/21 03:02:48;;;;;;;1999.90;999.90;;;;;;;9.56;49.51;102120.16;4980876;28;99547;-76
2021/09/21 03:05:19;;;;;;;1999.90;999.90;;;;;;;9.57;49.58;102140.56;4974356;28;96705;-75
2021/09/21 03:07:53;;;;;;;1999.90;999.90;;;;;;;9.58;49.82;102145.03;4981591;28;96780;-75
2021/09/21 03:10:40;;;;;;;1999.90;999.90;;;;;;;9.61;49.47;102147.84;4981657;28;97692;-76
2021/09/21 03:18:40;;;;;;;1999.90;999.90;;;;;;;9.62;49.38;102136.38;4965341;28;96847;-76
2021/09/21 03:21:08;;;;;;;1999.90;999.90;;;;;;;9.59;49.40;102138.88;4981643;28;100614;-76
2021/09/21 03:23:36;;;;;;;1999.90;999.90;;;;;;;9.57;49.59;102137.91;4976928;28;99252;-76
2021/09/21 03:26:04;;;;;;;1999.90;999.90;;;;;;;9.58;49.60;102139.72;4960088;28;98045;-76
2021/09/21 03:28:32;;;;;;;1999.90;999.90;;;;;;;9.56;49.53;102133.44;4965485;28;96823;-75
2021/09/21 03:31:00;;;;;;;1999.90;999.90;;;;;;;9.52;49.64;102139.44;4984376;28;99426;-75
2021/09/21 03:33:28;;;;;;;1999.90;999.90;;;;;;;9.51;49.83;102140.28;4983694;28;98986;-75
2021/09/21 03:35:57;;;;;;;1999.90;999.90;;;;;;;9.50;49.75;102148.19;4981815;28;96783;-75
2021/09/21 03:38:25;;;;;;;1999.90;999.90;;;;;;;9.47;49.75;102146.28;4982244;28;96801;-77
2021/09/21 03:40:53;;;;;;;1999.90;999.90;;;;;;;9.46;49.87;102148.84;4983660;28;97740;-76
2021/09/21 03:43:21;;;;;;;1999.90;999.90;;;;;;;9.46;49.87;102152.44;4979869;28;98013;-76
2021/09/21 03:45:48;;;;;;;1999.90;999.90;;;;;;;9.46;49.76;102151.50;4959672;28;96624;-75
2021/09/21 03:48:17;;;;;;;1999.90;999.90;;;;;;;9.47;49.79;102151.59;4983821;28;96959;-77
2021/09/21 03:50:45;;;;;;;1999.90;999.90;;;;;;;9.44;49.85;102154.09;4982834;28;99408;-76
2021/09/21 03:53:14;;;;;;;1999.90;999.90;;;;;;;9.45;49.83;102153.25;4979520;28;97719;-75
2021/09/21 03:55:42;;;;;;;1999.90;999.90;;;;;;;9.46;49.83;102160.41;4981699;28;97813;-76
2021/09/21 03:58:11;;;;;;;1999.90;999.90;;;;;;;9.45;49.92;102155.91;4983079;28;96929;-77
2021/09/21 04:00:39;;;;;;;1999.90;999.90;;;;;;;9.43;49.84;102141.63;4976317;28;98818;-76
2021/09/21 04:03:07;;;;;;;1999.90;999.90;;;;;;;9.37;50.02;102149.28;4980264;28;99183;-77
2021/09/21 04:05:35;;;;;;;1999.90;999.90;;;;;;;9.36;49.94;102147.50;4999682;28;96966;-77
2021/09/21 04:08:03;;;;;;;1999.90;999.90;;;;;;;9.38;49.88;102148.47;4983372;28;96821;-76
2021/09/21 04:10:32;;;;;;;1999.90;999.90;;;;;;;9.38;50.03;102145.81;4986696;28;99675;-76
2021/09/21 04:13:01;;;;;;;1999.90;999.90;;;;;;;9.40;49.97;102154.78;4990418;28;99159;-76
2021/09/21 04:15:29;;;;;;;1999.90;999.90;;;;;;;9.41;49.74;102161.00;4980131;28;96886;-78
2021/09/21 04:17:57;;;;;;;1999.90;999.90;;;;;;;9.40;49.84;102165.41;4966887;28;96956;-79
2021/09/21 04:20:26;;;;;;;1999.90;999.90;;;;;;;9.38;49.87;102172.38;4985635;28;97624;-79
2021/09/21 04:22:54;;;;;;;1999.90;999.90;;;;;;;9.37;49.92;102181.19;4984913;28;99560;-79
2021/09/21 04:25:22;;;;;;;1999.90;999.90;;;;;;;9.36;49.95;102178.44;4960154;28;96861;-78
2021/09/21 04:27:51;;;;;;;1999.90;999.90;;;;;;;9.35;50.02;102172.25;4981826;28;97144;-79
2021/09/21 04:30:21;;;;;;;1999.90;999.90;;;;;;;9.27;50.10;102178.94;4965111;28;99304;-78
2021/09/21 04:32:49;;;;;;;1999.90;999.90;;;;;;;9.18;50.29;102183.78;5000280;28;98863;-79
2021/09/21 04:35:17;;;;;;;1999.90;999.90;;;;;;;9.12;50.33;102186.13;4984067;28;97337;-77
2021/09/21 04:37:45;;;;;;;1999.90;999.90;;;;;;;9.08;50.46;102198.34;4967526;28;96927;-79
2021/09/21 04:40:14;;;;;;;1999.90;999.90;;;;;;;8.99;50.54;102191.69;4984719;28;98869;-78
2021/09/21 04:42:43;;;;;;;1999.90;999.90;;;;;;;8.92;50.94;102203.75;4983587;28;100496;-78
2021/09/21 04:45:12;;;;;;;1999.90;999.90;;;;;;;9.37;50.16;102213.06;4977750;28;97213;-77
2021/09/21 04:47:40;;;;;;;1999.90;999.90;;;;;;;9.59;49.98;102207.97;4966204;28;97199;-78
2021/09/21 04:50:09;;;;;;;1999.90;999.90;;;;;;;9.32;50.39;102211.94;4986526;28;97526;-78
2021/09/21 04:52:37;;;;;;;1999.90;999.90;;;;;;;9.22;50.62;102204.38;4983153;28;98972;-78
2021/09/21 04:55:07;;;;;;;1999.90;999.90;;;;;;;9.13;50.79;102199.50;4961333;28;96992;-78
2021/09/21 04:57:35;;;;;;;1999.90;999.90;;;;;;;9.07;50.83;102203.59;4983060;28;96823;-78
2021/09/21 05:00:04;;;;;;;1999.90;999.90;;;;;;;8.98;51.18;102200.50;4974921;28;98047;-78
2021/09/21 05:02:33;;;;;;;1999.90;999.90;;;;;;;8.96;50.83;102207.47;4982115;28;99170;-78
2021/09/21 05:05:01;;;;;;;1999.90;999.90;;;;;;;8.97;51.18;102207.53;4984341;28;96774;-78
2021/09/21 05:07:29;;;;;;;1999.90;999.90;;;;;;;8.97;50.94;102209.31;4985721;28;96943;-78
2021/09/21 05:09:57;;;;;;;1999.90;999.90;;;;;;;8.93;51.03;102213.50;4967922;28;99804;-78
2021/09/21 05:12:25;;;;;;;1999.90;999.90;;;;;;;8.89;51.09;102210.66;4992384;28;97587;-78
2021/09/21 05:14:53;;;;;;;1999.90;999.90;;;;;;;8.78;51.27;102206.53;4982135;28;97285;-78
2021/09/21 05:17:21;;;;;;;1999.90;999.90;;;;;;;8.64;51.41;102208.47;4985824;28;96904;-77
2021/09/21 05:19:51;;;;;;;1999.90;999.90;;;;;;;8.59;51.23;102217.03;4966903;28;97646;-77
2021/09/21 05:22:19;;;;;;;1999.90;999.90;;;;;;;8.57;51.71;102216.06;4977308;28;99288;-78
2021/09/21 05:24:47;;;;;;;1999.90;999.90;;;;;;;8.55;51.63;102229.22;4975038;28;97026;-77
2021/09/21 05:27:14;;;;;;;1999.90;999.90;;;;;;;8.59;51.50;102233.88;4984222;28;96895;-77
2021/09/21 05:29:43;;;;;;;1999.90;999.90;;;;;;;8.62;51.40;102233.13;4986532;28;98875;-78
2021/09/21 05:32:11;;;;;;;1999.90;999.90;;;;;;;8.59;51.33;102236.50;4992806;28;98121;-77
2021/09/21 05:34:39;;;;;;;1999.90;999.90;;;;;;;8.59;51.57;102230.28;4975906;28;96809;-77
2021/09/21 05:37:08;;;;;;;1999.90;999.90;;;;;;;8.57;51.62;102222.25;4984430;28;96887;-77
2021/09/21 05:39:36;;;;;;;1999.90;999.90;;;;;;;8.55;51.45;102228.34;4984117;28;99404;-77
2021/09/21 05:42:04;;;;;;;1999.90;999.90;;;;;;;8.56;51.49;102224.84;4976160;28;99990;-77
2021/09/21 05:44:32;;;;;;;1999.90;999.90;;;;;;;8.59;51.23;102220.59;4984238;28;97226;-77
2021/09/21 05:47:00;;;;;;;1999.90;999.90;;;;;;;8.63;51.38;102216.34;4976457;28;96885;-78
2021/09/21 05:49:28;;;;;;;1999.90;999.90;;;;;;;8.66;51.34;102222.72;4959179;28;99367;-78
2021/09/21 05:51:56;;;;;;;1999.90;999.90;;;;;;;8.70;51.17;102230.03;4986545;28;97637;-77
2021/09/21 05:54:25;;;;;;;1999.90;999.90;;;;;;;8.71;51.33;102236.25;4984270;28;96927;-78
2021/09/21 05:56:53;;;;;;;1999.90;999.90;;;;;;;8.73;51.20;102234.59;4984190;28;96881;-77
2021/09/21 05:59:21;;;;;;;1999.90;999.90;;;;;;;8.77;51.00;102250.75;4982458;28;99330;-78
2021/09/21 06:01:49;;;;;;;1999.90;999.90;;;;;;;8.80;51.00;102257.97;4984690;28;97923;-77
2021/09/21 06:04:18;;;;;;;1999.90;999.90;;;;;;;8.82;50.86;102254.53;4973783;28;97192;-77
2021/09/21 06:06:46;;;;;;;1999.90;999.90;;;;;;;8.86;50.90;102258.28;4984562;28;96916;-78
2021/09/21 06:09:14;;;;;;;1999.90;999.90;;;;;;;9.30;50.28;102253.44;4979927;28;98623;-78
2021/09/21 06:11:44;;;;;;;1999.90;999.90;;;;;;;9.09;50.91;102253.31;4997358;28;97535;-77
2021/09/21 06:14:12;;;;;;;1999.90;999.90;;;;;;;9.05;50.90;102255.72;4975096;28;96790;-78
2021/09/21 06:16:40;;;;;;;1999.90;999.90;;;;;;;9.04;50.81;102261.88;4982905;28;96768;-77
2021/09/21 06:19:08;;;;;;;1999.90;999.90;;;;;;;9.03;50.98;102271.59;4983693;28;100066;-77
2021/09/21 06:21:37;;;;;;;1999.90;999.90;;;;;;;9.03;50.90;102263.63;4958741;28;98788;-78
2021/09/21 06:24:05;;;;;;;1999.90;999.90;;;;;;;9.05;50.74;102271.66;4987171;28;96867;-78
2021/09/21 06:26:33;;;;;;;1999.90;999.90;;;;;;;9.06;50.82;102278.81;4984015;28;96967;-78
2021/09/21 06:29:03;;;;;;;1999.90;999.90;;;;;;;9.09;50.66;102281.59;4975646;28;101634;-78
2021/09/21 06:31:33;;;;;;;1999.90;999.90;;;;;;;9.10;50.70;102280.75;4975839;28;97951;-77
2021/09/21 06:34:01;;;;;;;1999.90;999.90;;;;;;;9.11;50.64;102287.91;4984579;28;97393;-77
2021/09/21 06:36:29;;;;;;;1999.90;999.90;;;;;;;9.09;50.77;102294.88;4984022;28;96833;-77
2021/09/21 06:38:58;;;;;;;1999.90;999.90;;;;;;;9.06;50.66;102289.44;5001704;28;99699;-78
2021/09/21 06:41:26;;;;;;;1999.90;999.90;;;;;;;8.98;50.81;102294.34;4968917;28;99308;-77
2021/09/21 06:43:54;;;;;;;1999.90;999.90;;;;;;;8.92;51.11;102301.06;4985354;28;97043;-77
2021/09/21 06:46:23;;;;;;;1999.90;999.90;;;;;;;8.83;51.17;102305.88;4960056;28;96810;-78
2021/09/21 06:48:52;;;;;;;1999.90;999.90;;;;;;;8.81;51.22;102311.13;4987252;28;98901;-78
2021/09/21 06:51:20;;;;;;;1999.90;999.90;;;;;;;8.80;51.33;102305.75;4968085;28;99740;-79
2021/09/21 06:53:48;;;;;;;1999.90;999.90;;;;;;;8.80;51.53;102314.63;4970048;28;97347;-77
2021/09/21 06:56:16;;;;;;;1999.90;999.90;;;;;;;8.84;51.26;102311.28;4985379;28;96962;-77
2021/09/21 06:58:44;;;;;;;1999.90;999.90;;;;;;;8.87;51.20;102308.78;4986569;28;97790;-78
2021/09/21 07:01:12;;;;;;;1999.90;999.90;;;;;;;8.86;51.10;102303.41;4970475;28;99644;-78
2021/09/21 07:03:45;;;;;;;1999.90;999.90;;;;;;;8.85;51.07;102306.88;4988027;28;97080;-77
2021/09/21 07:06:13;;;;;;;1999.90;999.90;;;;;;;8.82;51.08;102306.72;4977478;28;96880;-77
2021/09/21 07:08:42;;;;;;;1999.90;999.90;;;;;;;8.81;51.34;102312.84;4986423;28;100344;-77
2021/09/21 07:11:10;;;;;;;1999.90;999.90;;;;;;;8.80;51.49;102319.94;4977784;28;99206;-78
2021/09/21 07:13:38;;;;;;;1999.90;999.90;;;;;;;8.79;51.26;102327.78;4982040;28;96855;-78
2021/09/21 07:16:06;;;;;;;1999.90;999.90;;;;;;;8.82;51.34;102325.31;4964206;28;97735;-77
2021/09/21 07:18:34;;;;;;;1999.90;999.90;;;;;;;8.86;51.26;102328.19;5000344;28;99766;-78
2021/09/21 07:21:05;;;;;;;1999.90;999.90;;;;;;;8.85;51.50;102328.13;4987863;28;101000;-78
2021/09/21 07:23:34;;;;;;;1999.90;999.90;;;;;;;8.85;51.06;102320.16;4962569;28;96807;-78
2021/09/21 07:26:03;;;;;;;1999.90;999.90;;;;;;;8.88;51.08;102309.69;4981657;28;96908;-77
2021/09/21 07:28:31;;;;;;;1999.90;999.90;;;;;;;8.89;51.21;102316.84;4970605;28;100681;-78
2021/09/21 07:30:59;;;;;;;1999.90;999.90;;;;;;;8.90;51.14;102318.66;4985276;28;99848;-77
2021/09/21 07:33:27;;;;;;;1999.90;999.90;;;;;;;8.93;51.14;102327.69;4981808;28;97938;-78
2021/09/21 07:35:56;;;;;;;1999.90;999.90;;;;;;;8.98;51.06;102323.53;4984767;28;97215;-77
2021/09/21 07:38:25;;;;;;;1999.90;999.90;;;;;;;9.03;50.88;102327.34;4984631;28;100032;-78
2021/09/21 07:40:54;;;;;;;1999.90;999.90;;;;;;;9.11;50.78;102338.38;4998698;28;96922;-78
2021/09/21 07:43:25;;;;;;;1999.90;999.90;;;;;;;9.10;50.83;102333.88;4984892;28;96811;-77
2021/09/21 07:45:53;;;;;;;1999.90;999.90;;;;;;;9.14;50.64;102338.50;4969836;28;97316;-78
2021/09/21 07:48:22;;;;;;;1999.90;999.90;;;;;;;9.18;50.64;102341.41;5001800;28;99259;-77
2021/09/21 07:50:51;;;;;;;1999.90;999.90;;;;;;;9.22;50.50;102350.47;4987049;28;99293;-77
2021/09/21 07:53:20;;;;;;;1999.90;999.90;;;;;;;9.27;50.64;102337.38;4985393;28;96667;-77
2021/09/21 07:55:50;;;;;;;1999.90;999.90;;;;;;;9.34;50.32;102344.84;4968259;28;96934;-77
2021/09/21 07:58:19;;;;;;;1999.90;999.90;;;;;;;9.37;50.16;102345.91;4984452;28;99419;-77
2021/09/21 08:00:52;;;;;;;1999.90;999.90;;;;;;;9.42;50.01;102343.50;4984326;28;97559;-77
2021/09/21 08:03:20;;;;;;;1999.90;999.90;;;;;;;9.47;50.05;102347.28;4985271;28;96695;-77
2021/09/21 08:05:49;;;;;;;1999.90;999.90;;;;;;;9.54;49.87;102345.06;4985504;28;96013;-78
2021/09/21 08:08:17;;;;;;;1999.90;999.90;;;;;;;9.57;49.83;102355.81;4978973;28;99510;-78
2021/09/21 08:10:46;;;;;;;1999.90;999.90;;;;;;;9.62;49.88;102351.69;4972999;28;99907;-78
2021/09/21 08:13:16;;;;;;;1999.90;999.90;;;;;;;9.66;49.67;102372.25;4974402;28;96837;-78
2021/09/21 08:15:44;;;;;;;1999.90;999.90;;;;;;;9.73;49.44;102369.06;4973831;28;97051;-78
2021/09/21 08:18:12;;;;;;;1999.90;999.90;;;;;;;9.80;49.31;102371.19;4982861;28;99383;-78
2021/09/21 08:20:40;;;;;;;1999.90;999.90;;;;;;;9.86;49.24;102366.16;4983972;28;97578;-78
2021/09/21 08:23:08;;;;;;;1999.90;999.90;;;;;;;9.85;49.26;102369.66;4986054;28;96756;-77
2021/09/21 08:25:36;;;;;;;1999.90;999.90;;;;;;;9.85;49.24;102371.41;4985536;28;96926;-79
2021/09/21 08:28:04;;;;;;;1999.90;999.90;;;;;;;9.84;49.26;102367.84;4983634;28;101092;-78
2021/09/21 08:30:34;;;;;;;1999.90;999.90;;;;;;;9.87;49.21;102368.00;4959650;28;98509;-78
2021/09/21 08:33:02;;;;;;;1999.90;999.90;;;;;;;9.94;49.27;102369.19;4982642;28;97631;-77
2021/09/21 08:35:30;;;;;;;1999.90;999.90;;;;;;;9.99;49.04;102368.56;4983853;28;97292;-77
2021/09/21 08:37:59;;;;;;;1999.90;999.90;;;;;;;10.01;48.92;102364.25;4999865;28;97961;-77
2021/09/21 08:40:28;;;;;;;1999.90;999.90;;;;;;;9.99;48.69;102367.69;4981104;28;99256;-78
2021/09/21 08:42:55;;;;;;;1999.90;999.90;;;;;;;9.99;48.81;102362.38;4983380;28;96973;-77
2021/09/21 08:45:24;;;;;;;1999.90;999.90;;;;;;;9.99;48.57;102360.59;4982815;28;96949;-78
2021/09/21 08:47:54;;;;;;;1999.90;999.90;;;;;;;10.02;48.61;102360.78;4974975;28;99416;-77
2021/09/21 08:50:22;;;;;;;1999.90;999.90;;;;;;;10.37;47.27;102356.22;4995320;28;100642;-77
2021/09/21 08:52:50;;;;;;;1999.90;999.90;;;;;;;10.59;46.15;102359.06;4975735;28;96911;-78
2021/09/21 08:55:18;;;;;;;1999.90;999.90;;;;;;;10.48;46.78;102361.25;4983822;28;97139;-77
2021/09/21 08:57:47;;;;;;;1999.90;999.90;;;;;;;10.47;46.89;102363.78;4983941;28;98793;-77
2021/09/21 09:00:21;;;;;;;1999.90;999.90;;;;;;;10.44;46.88;102363.66;4977443;28;100694;-77
2021/09/21 09:02:49;;;;;;;1999.90;999.90;;;;;;;10.46;47.20;102362.00;4975077;28;97068;-77
2021/09/21 09:05:19;;;;;;;1999.90;999.90;;;;;;;10.51;47.09;102361.38;4965259;28;97061;-77
2021/09/21 09:07:52;;;;;;;1999.90;999.90;;;;;;;10.55;47.05;102362.41;4960570;28;99679;-77
2021/09/21 09:10:21;;;;;;;1999.90;999.90;;;;;;;10.59;47.09;102357.31;4965759;28;99215;-77
2021/09/21 09:12:50;;;;;;;1999.90;999.90;;;;;;;10.64;47.05;102346.88;4974162;28;96946;-78
2021/09/21 09:15:21;;;;;;;1999.90;999.90;;;;;;;10.67;46.78;102354.97;4983621;28;98168;-77
2021/09/21 09:17:57;;;;;;;1999.90;999.90;;;;;;;10.62;46.41;102346.81;4981911;28;99851;-77
2021/09/21 09:20:39;;;;;;;1999.90;999.90;;;;;;;10.64;46.04;102352.19;4981439;28;100627;-78
2021/09/21 09:23:09;;;;;;;1999.90;999.90;;;;;;;10.68;46.69;102356.81;4965455;28;96811;-78
2021/09/21 09:25:41;;;;;;;1999.90;999.90;;;;;;;10.68;46.17;102364.81;4965355;28;96931;-77
2021/09/21 09:28:14;;;;;;;1999.90;999.90;;;;;;;10.57;43.07;102372.31;4964925;28;99907;-77
2021/09/21 09:30:43;;;;;;;1999.90;999.90;;;;;;;10.57;46.24;102374.06;4981257;28;97574;-78
2021/09/21 09:33:11;;;;;;;1999.90;999.90;;;;;;;10.51;46.08;102373.75;4965018;28;96878;-77
2021/09/21 09:35:43;;;;;;;1999.90;999.90;;;;;;;10.50;46.14;102371.94;4975404;28;96882;-77
2021/09/21 09:38:12;;;;;;;1999.90;999.90;;;;;;;10.54;46.13;102376.59;4981465;28;98142;-78
2021/09/21 09:40:42;;;;;;;1999.90;999.90;;;;;;;10.55;46.12;102363.34;4982072;28;98004;-77
2021/09/21 09:43:11;;;;;;;1999.90;999.90;;;;;;;10.61;46.00;102368.91;4961991;28;97183;-77
2021/09/21 09:45:40;;;;;;;1999.90;999.90;;;;;;;10.66;46.01;102372.72;4964915;28;97115;-77
2021/09/21 09:48:14;;;;;;;1999.90;999.90;;;;;;;10.71;45.81;102373.84;4965531;28;99222;-77
2021/09/21 09:50:43;;;;;;;1999.90;999.90;;;;;;;10.75;45.71;102377.56;4981583;28;97586;-78
2021/09/21 09:53:16;;;;;;;1999.90;999.90;;;;;;;10.77;45.51;102370.56;4981343;28;97256;-77
2021/09/21 09:55:46;;;;;;;1999.90;999.90;;;;;;;10.80;45.63;102365.34;4975491;28;97239;-77
2021/09/21 09:58:16;;;;;;;1999.90;999.90;;;;;;;10.80;45.52;102360.03;4973511;28;99443;-78
2021/09/21 10:00:45;;;;;;;1999.90;999.90;;;;;;;10.83;45.29;102358.41;4982364;28;97904;-78
2021/09/21 10:03:13;;;;;;;1999.90;999.90;;;;;;;10.86;45.49;102358.56;4985579;28;96908;-78
2021/09/21 10:05:43;;;;;;;1999.90;999.90;;;;;;;10.86;45.41;102366.56;4958244;28;96924;-78
2021/09/21 10:08:12;;;;;;;1999.90;999.90;;;;;;;10.91;45.35;102385.41;4979490;28;100661;-77
2021/09/21 10:10:41;;;;;;;1999.90;999.90;;;;;;;10.90;44.98;102368.50;4982638;28;99704;-77
2021/09/21 10:13:12;;;;;;;1999.90;999.90;;;;;;;10.88;45.08;102377.28;4982519;28;96795;-78
2021/09/21 10:15:40;;;;;;;1999.90;999.90;;;;;;;10.86;44.94;102378.97;4981060;28;97497;-77
2021/09/21 10:18:15;;;;;;;1999.90;999.90;;;;;;;10.83;44.63;102386.81;4997022;28;99058;-77
2021/09/21 10:20:45;;;;;;;1999.90;999.90;;;;;;;10.86;44.98;102379.88;4989609;28;97774;-78
2021/09/21 10:23:13;;;;;;;1999.90;999.90;;;;;;;10.90;45.09;102383.59;4997077;28;96838;-77
2021/09/21 10:25:43;;;;;;;1999.90;999.90;;;;;;;10.94;45.05;102369.56;4966647;28;97248;-78
2021/09/21 10:28:20;;;;;;;1999.90;999.90;;;;;;;10.97;45.02;102370.63;4981595;28;99448;-78
2021/09/21 10:30:59;;;;;;;1999.90;999.90;;;;;;;10.98;44.46;102366.19;4973771;28;99572;-77
2021/09/21 10:33:28;;;;;;;1999.90;999.90;;;;;;;11.02;44.76;102377.06;4982314;28;97276;-78
2021/09/21 10:35:57;;;;;;;1999.90;999.90;;;;;;;11.05;44.67;102385.16;4973271;28;97472;-78
2021/09/21 10:38:25;;;;;;;1999.90;999.90;;;;;;;11.09;44.70;102386.22;4980395;28;100736;-78
2021/09/21 10:41:02;;;;;;;1999.90;999.90;;;;;;;11.08;44.18;102382.66;4981580;28;101018;-78
2021/09/21 10:43:32;;;;;;;1999.90;999.90;;;;;;;11.10;44.69;102380.94;4981290;28;96781;-77
2021/09/21 10:46:23;;;;;;;1999.90;999.90;;;;;;;11.09;44.41;102386.22;4971773;28;97478;-78
2021/09/21 10:48:51;;;;;;;1999.90;999.90;;;;;;;11.10;44.51;102378.28;4979052;28;97930;-77
2021/09/21 10:51:23;;;;;;;1999.90;999.90;;;;;;;11.11;44.27;102374.78;4964697;28;100952;-77
2021/09/21 10:54:00;;;;;;;1999.90;999.90;;;;;;;11.04;42.43;102377.13;4967825;28;97235;-77
2021/09/21 10:56:29;;;;;;;1999.90;999.90;;;;;;;11.05;44.06;102386.91;4984041;28;96796;-77
2021/09/21 10:58:58;;;;;;;1999.90;999.90;;;;;;;11.07;44.11;102388.81;4983223;28;97927;-77
2021/09/21 11:01:26;;;;;;;1999.90;999.90;;;;;;;11.12;44.05;102391.69;4982908;28;99080;-77
2021/09/21 11:03:55;;;;;;;1999.90;999.90;;;;;;;11.14;44.16;102390.03;4983908;28;97491;-77
2021/09/21 11:06:24;;;;;;;1999.90;999.90;;;;;;;11.16;44.05;102377.66;4979747;28;97209;-77